Terminal Aerodrome Forecast
Issued by NWS Shreveport, LA

Home | Current Version | Previous Version | Text Only | Print | Product List | Glossary On
Versions: 1 2 3 4 5 6 7 8 9 10 11 12 13
000
FTUS44 KSHV 290500
TAFELD
TAF
KELD 290520Z 2906/3006 18008KT P6SM SCT015
      TEMPO 2906/2908 BKN015
     FM290800 19007KT P6SM OVC010
      TEMPO 2908/2912 3SM BR OVC005
     FM291200 19005KT 3SM BR OVC005
      TEMPO 2912/2915 P6SM NSW OVC012
     FM291500 21010KT P6SM OVC015
     FM291700 21014G22KT P6SM BKN030
     FM292000 21015G24KT P6SM SCT040
     FM292300 19010KT P6SM SCT045=

USA.gov is the U.S. government's official web portal to all federal, state and local government web resources and services.